Time;durP1;ratioP1;P1;durP2;ratioP2;P2;SDS_P1;SDS_P2;PMS_P1;PMS_P2;Temp;Humidity;BMP_temperature;BMP_pressure;BME280_temperature;BME280_humidity;BME280_pressure;Samples;Min_cycle;Max_cycle;Signal;HPM_P1;HPM_P2
2022/08/18 00:01:50;;;;;;;5.45;5.00;;;;;;;25.24;48.45;96887.09;5011260;28;20247;-75
2022/08/18 00:04:15;;;;;;;5.38;4.88;;;;;;;25.37;48.24;96879.78;5030459;27;20162;-75
2022/08/18 00:06:41;;;;;;;5.72;5.22;;;;;;;25.30;48.79;96876.22;5017496;27;20244;-75
2022/08/18 00:09:09;;;;;;;5.10;4.70;;;;;;;25.28;48.94;96873.88;5016930;28;20269;-75
2022/08/18 00:11:40;;;;;;;5.80;5.38;;;;;;;25.27;48.79;96877.66;4995896;27;20203;-75
2022/08/18 00:14:06;;;;;;;5.32;4.93;;;;;;;25.27;48.86;96876.91;4996219;28;20205;-75
2022/08/18 00:16:32;;;;;;;6.10;5.50;;;;;;;25.22;48.72;96884.03;5008590;27;20164;-75
2022/08/18 00:18:57;;;;;;;5.28;4.78;;;;;;;25.22;49.09;96881.34;5030324;27;20236;-75
2022/08/18 00:21:23;;;;;;;4.85;4.45;;;;;;;25.28;48.99;96879.22;5029976;27;20199;-75
2022/08/18 00:23:48;;;;;;;5.57;5.07;;;;;;;25.29;48.94;96872.00;5014756;28;20278;-75
2022/08/18 00:26:14;;;;;;;5.40;4.57;;;;;;;25.28;48.97;96873.88;5042239;27;20329;-75
2022/08/18 00:28:40;;;;;;;4.93;4.50;;;;;;;25.23;49.05;96868.81;5033321;27;20313;-75
2022/08/18 00:31:05;;;;;;;5.13;4.72;;;;;;;25.22;49.18;96876.03;5014255;27;20355;-75
2022/08/18 00:33:30;;;;;;;5.60;5.05;;;;;;;25.20;49.27;96880.91;5049397;27;20030;-75
2022/08/18 00:35:56;;;;;;;5.10;4.65;;;;;;;25.19;49.42;96889.25;5031630;27;20647;-75
2022/08/18 00:38:21;;;;;;;4.75;4.35;;;;;;;25.04;49.94;96882.84;5027398;27;20290;-75
2022/08/18 00:40:50;;;;;;;6.65;5.18;;;;;;;24.84;50.40;96884.66;5017399;27;20203;-75
2022/08/18 00:43:34;;;;;;;5.30;4.88;;;;;;;24.65;51.05;96883.47;5027004;27;20202;-75
2022/08/18 00:45:59;;;;;;;5.50;5.00;;;;;;;24.72;50.81;96874.09;5029436;27;20443;-75
2022/08/18 00:48:25;;;;;;;5.40;4.88;;;;;;;24.70;50.71;96866.47;5033499;27;20453;-75
2022/08/18 00:50:53;;;;;;;5.28;4.88;;;;;;;24.70;50.71;96869.13;5031526;27;20203;-75
2022/08/18 00:53:55;;;;;;;5.53;5.03;;;;;;;24.65;50.86;96867.50;5020398;28;20286;-75
2022/08/18 00:56:34;;;;;;;4.85;4.45;;;;;;;24.60;51.71;96867.75;4984218;28;20351;-75
2022/08/18 00:59:00;;;;;;;5.40;4.90;;;;;;;24.75;51.74;96871.53;4999199;28;20266;-75
2022/08/18 01:01:28;;;;;;;4.97;4.47;;;;;;;24.61;52.84;96877.28;5006525;27;20363;-75
2022/08/18 01:04:00;;;;;;;6.45;4.90;;;;;;;24.54;52.98;96884.28;5020441;28;20714;-75
2022/08/18 01:06:31;;;;;;;4.95;4.55;;;;;;;24.56;52.88;96884.75;5006363;28;20247;-75
2022/08/18 01:08:57;;;;;;;4.80;4.40;;;;;;;24.51;53.30;96892.97;5010153;28;20272;-75
2022/08/18 01:11:22;;;;;;;5.30;4.90;;;;;;;24.46;53.60;96892.09;5010613;28;20287;-75
2022/08/18 01:13:48;;;;;;;5.63;5.13;;;;;;;24.39;54.50;96886.59;5017621;28;20228;-75
2022/08/18 01:21:50;;;;;;;5.80;5.30;;;;;;;23.97;56.03;96881.69;5021544;28;20242;-75
2022/08/18 01:24:17;;;;;;;4.82;4.43;;;;;;;23.97;56.50;96884.34;5018405;27;20176;-75
2022/08/18 01:26:48;;;;;;;5.85;5.25;;;;;;;23.92;57.41;96882.72;5026856;28;20755;-75
2022/08/18 01:29:14;;;;;;;5.68;5.18;;;;;;;23.89;57.42;96890.63;5020712;28;20174;-75
2022/08/18 01:31:53;;;;;;;5.00;4.57;;;;;;;23.72;57.95;96886.31;5010190;28;20680;-74
2022/08/18 01:34:21;;;;;;;5.22;4.82;;;;;;;23.64;58.33;96898.63;5012995;27;20641;-74
2022/08/18 01:36:51;;;;;;;5.63;5.13;;;;;;;23.60;58.57;96889.00;5014039;27;20376;-75
2022/08/18 01:39:17;;;;;;;6.40;5.40;;;;;;;23.45;59.39;96888.59;5029958;27;20289;-75
2022/08/18 01:41:43;;;;;;;5.78;5.18;;;;;;;23.42;59.71;96888.47;5013817;28;20178;-75
2022/08/18 01:44:10;;;;;;;6.70;5.38;;;;;;;23.38;60.21;96883.84;5011715;28;20619;-75
2022/08/18 01:46:37;;;;;;;6.03;5.43;;;;;;;23.28;60.73;96883.53;5033331;27;20194;-75
2022/08/18 01:49:04;;;;;;;5.72;5.15;;;;;;;23.25;60.92;96882.31;5029844;27;20612;-75
2022/08/18 01:51:31;;;;;;;6.68;6.05;;;;;;;23.07;62.01;96873.03;5007630;28;20194;-75
2022/08/18 01:53:57;;;;;;;6.60;5.45;;;;;;;23.08;62.29;96883.34;4990186;28;20276;-75
2022/08/18 01:56:22;;;;;;;6.13;5.47;;;;;;;23.09;61.94;96876.13;5009052;28;20969;-75
2022/08/18 01:58:48;;;;;;;6.07;5.57;;;;;;;23.08;61.97;96880.69;5034580;27;20286;-75
2022/08/18 02:01:14;;;;;;;5.97;5.47;;;;;;;23.03;61.70;96878.22;4997687;27;20124;-75
2022/08/18 02:03:43;;;;;;;5.78;5.28;;;;;;;22.96;61.66;96888.59;5010341;27;20651;-75
2022/08/18 02:06:11;;;;;;;6.32;4.93;;;;;;;22.94;62.06;96885.50;5017647;27;20241;-75
2022/08/18 02:08:37;;;;;;;5.45;5.05;;;;;;;22.94;62.29;96886.28;5029405;27;20655;-75
2022/08/18 02:11:03;;;;;;;5.75;5.25;;;;;;;22.92;62.12;96877.88;5029552;27;20337;-75
2022/08/18 02:13:29;;;;;;;6.75;5.40;;;;;;;22.95;61.87;96873.78;5000531;28;20192;-75
2022/08/18 02:15:55;;;;;;;7.03;5.53;;;;;;;22.96;61.84;96870.81;5028851;27;20135;-75
2022/08/18 02:18:23;;;;;;;6.18;5.68;;;;;;;22.95;61.72;96877.22;5000348;27;20636;-75
2022/08/18 02:20:49;;;;;;;6.28;5.68;;;;;;;22.97;62.04;96860.94;5017407;27;20202;-75
2022/08/18 02:23:14;;;;;;;6.28;5.45;;;;;;;22.96;62.22;96867.34;5018651;27;20192;-75
2022/08/18 02:25:41;;;;;;;6.93;5.50;;;;;;;22.89;62.12;96859.94;5036410;27;20203;-75
2022/08/18 02:28:07;;;;;;;7.03;6.32;;;;;;;22.88;62.78;96858.41;5023519;27;20598;-75
2022/08/18 02:30:33;;;;;;;6.05;5.40;;;;;;;22.79;62.92;96855.06;5012707;27;20226;-75
2022/08/18 02:33:00;;;;;;;7.00;6.20;;;;;;;22.73;64.03;96859.06;5013494;27;20200;-75
2022/08/18 02:35:25;;;;;;;8.93;5.70;;;;;;;22.71;63.54;96851.44;4991744;27;20245;-75
2022/08/18 02:37:51;;;;;;;6.38;5.82;;;;;;;22.75;63.48;96846.25;5028330;27;20698;-75
2022/08/18 02:40:17;;;;;;;6.38;5.70;;;;;;;22.76;63.12;96861.06;5086878;27;20135;-76
2022/08/18 02:42:44;;;;;;;7.70;6.25;;;;;;;22.73;63.42;96856.41;5080250;28;20078;-75
2022/08/18 02:45:11;;;;;;;6.85;5.82;;;;;;;22.71;63.63;96861.28;5075552;28;20091;-75
2022/08/18 02:47:37;;;;;;;6.38;5.80;;;;;;;22.72;63.75;96865.47;5093941;27;20118;-75
2022/08/18 02:50:04;;;;;;;6.25;5.65;;;;;;;22.67;63.86;96868.34;5084012;27;20039;-75
2022/08/18 02:52:31;;;;;;;6.40;5.68;;;;;;;22.63;64.21;96862.94;5051271;27;20238;-75
2022/08/18 02:54:59;;;;;;;6.65;6.05;;;;;;;22.60;64.46;96867.03;5026514;28;20630;-75
2022/08/18 02:57:25;;;;;;;6.28;5.50;;;;;;;22.59;64.68;96867.34;5027870;28;20682;-75
2022/08/18 02:59:50;;;;;;;7.03;6.32;;;;;;;22.57;64.46;96858.97;5071937;27;20035;-75
2022/08/18 03:02:16;;;;;;;6.43;5.82;;;;;;;22.58;64.71;96863.91;5115260;27;20038;-75
2022/08/18 03:04:42;;;;;;;6.18;5.57;;;;;;;22.60;63.86;96861.72;5084359;28;20035;-75
2022/08/18 03:07:08;;;;;;;6.90;6.40;;;;;;;22.57;64.13;96857.06;5067604;27;20026;-75
2022/08/18 03:09:34;;;;;;;6.10;5.57;;;;;;;22.52;64.68;96859.94;5062572;28;20039;-75
2022/08/18 03:12:00;;;;;;;6.22;5.72;;;;;;;22.52;64.56;96857.28;5021094;28;20165;-75
2022/08/18 03:14:25;;;;;;;6.38;5.78;;;;;;;22.50;64.97;96854.19;5012673;27;20269;-75
2022/08/18 03:16:51;;;;;;;8.10;6.35;;;;;;;22.40;65.39;96852.72;5012668;27;20201;-75
2022/08/18 03:19:16;;;;;;;7.20;6.30;;;;;;;22.41;65.47;96842.88;5038298;28;20302;-75
2022/08/18 03:21:44;;;;;;;6.68;6.07;;;;;;;22.39;64.90;96850.41;5098093;28;20426;-75
2022/08/18 03:24:11;;;;;;;7.03;6.43;;;;;;;22.38;65.17;96847.00;5080311;28;20090;-75
2022/08/18 03:26:41;;;;;;;9.60;7.47;;;;;;;22.28;65.06;96843.97;5077188;27;20058;-75
2022/08/18 03:29:11;;;;;;;7.80;7.10;;;;;;;22.29;65.35;96838.34;5082681;28;20106;-75
2022/08/18 03:31:37;;;;;;;7.72;6.95;;;;;;;22.27;65.38;96837.88;5046883;28;20145;-75
2022/08/18 03:34:05;;;;;;;6.50;5.82;;;;;;;22.28;65.06;96838.66;5027860;27;20371;-75
2022/08/18 03:36:32;;;;;;;7.20;6.50;;;;;;;22.36;65.26;96832.50;5014908;27;20257;-75
2022/08/18 03:39:00;;;;;;;8.20;6.43;;;;;;;22.35;65.31;96837.03;5058183;27;20446;-75
2022/08/18 03:41:27;;;;;;;7.45;6.65;;;;;;;22.30;65.44;96836.47;5081025;28;20407;-75
2022/08/18 03:43:53;;;;;;;7.63;6.53;;;;;;;22.22;65.67;96828.22;5081504;27;20066;-75
2022/08/18 03:46:20;;;;;;;8.93;6.82;;;;;;;22.19;65.64;96834.22;5081065;27;20382;-75
2022/08/18 03:48:48;;;;;;;8.00;6.57;;;;;;;22.23;65.54;96827.16;5075333;28;20039;-75
2022/08/18 03:51:17;;;;;;;7.22;6.53;;;;;;;22.25;65.44;96832.88;5049030;28;20254;-75
2022/08/18 03:53:43;;;;;;;7.28;6.63;;;;;;;22.28;65.60;96831.50;4992544;28;20201;-75
2022/08/18 03:56:14;;;;;;;7.38;6.60;;;;;;;22.31;65.06;96838.81;5006751;27;20204;-75
2022/08/18 03:58:44;;;;;;;6.63;6.03;;;;;;;22.29;65.35;96835.69;5008422;28;20216;-75
2022/08/18 04:01:09;;;;;;;7.55;6.35;;;;;;;22.30;65.26;96836.47;5008948;28;20769;-75
2022/08/18 04:03:35;;;;;;;7.40;6.80;;;;;;;22.24;65.67;96844.63;5007734;27;20151;-75
2022/08/18 04:06:01;;;;;;;9.20;7.32;;;;;;;22.24;65.76;96843.81;5007409;28;20616;-75
2022/08/18 04:08:26;;;;;;;7.90;7.10;;;;;;;22.24;66.22;96838.50;5029852;27;20208;-75
2022/08/18 04:10:51;;;;;;;8.30;7.60;;;;;;;22.23;66.25;96839.63;5003941;28;20696;-75
2022/08/18 04:13:17;;;;;;;8.35;7.55;;;;;;;22.15;66.72;96840.50;5007802;28;20197;-75
2022/08/18 04:15:42;;;;;;;8.35;7.05;;;;;;;22.16;66.35;96829.56;5008968;27;20235;-75
2022/08/18 04:18:07;;;;;;;8.80;7.68;;;;;;;22.21;66.09;96839.97;5006922;28;20247;-75
2022/08/18 04:20:34;;;;;;;8.55;7.60;;;;;;;22.08;66.71;96838.38;5015902;27;20189;-75
2022/08/18 04:23:00;;;;;;;8.23;7.43;;;;;;;22.14;66.71;96846.88;5014093;28;20167;-75
2022/08/18 04:25:26;;;;;;;8.40;7.57;;;;;;;22.19;66.59;96849.34;5008726;28;20342;-75
2022/08/18 04:27:59;;;;;;;8.13;7.32;;;;;;;22.20;66.47;96843.72;4989056;27;20201;-75
2022/08/18 04:30:24;;;;;;;8.63;7.53;;;;;;;22.20;66.80;96848.25;5010583;27;20766;-75
2022/08/18 04:32:50;;;;;;;8.40;7.47;;;;;;;22.19;66.67;96851.97;4983108;28;20266;-75
2022/08/18 04:35:15;;;;;;;10.18;7.43;;;;;;;22.20;66.66;96856.97;5004427;28;20333;-75
2022/08/18 04:37:42;;;;;;;8.90;7.53;;;;;;;22.27;66.28;96859.09;5003946;28;20647;-75
2022/08/18 04:40:09;;;;;;;7.88;7.07;;;;;;;22.24;66.71;96865.84;5016046;28;20598;-74
2022/08/18 04:42:35;;;;;;;7.75;7.05;;;;;;;22.27;66.20;96853.78;5022043;28;20210;-75
2022/08/18 04:45:00;;;;;;;7.45;6.75;;;;;;;22.28;66.06;96867.84;5020707;28;20167;-75
2022/08/18 04:47:26;;;;;;;7.90;7.10;;;;;;;22.28;66.01;96878.44;5003124;28;20288;-75
2022/08/18 04:49:51;;;;;;;7.57;6.82;;;;;;;22.25;66.44;96875.31;4970505;28;20204;-75
2022/08/18 04:55:01;;;;;;;8.57;7.88;;;;;;;22.29;66.52;96880.00;5004671;28;20615;-75
2022/08/18 04:57:27;;;;;;;8.57;7.70;;;;;;;22.28;66.48;96881.88;5007842;27;20992;-75
2022/08/18 04:59:53;;;;;;;8.13;7.18;;;;;;;22.28;66.44;96879.25;5010433;28;20201;-75
2022/08/18 05:02:19;;;;;;;8.18;7.30;;;;;;;22.32;66.39;96889.97;5008706;27;20274;-75
2022/08/18 05:04:48;;;;;;;7.60;6.90;;;;;;;22.33;66.53;96900.25;5021276;27;20196;-75
2022/08/18 05:07:17;;;;;;;7.53;6.82;;;;;;;22.25;66.33;96904.50;5009040;28;20303;-75
2022/08/18 05:09:43;;;;;;;7.75;7.05;;;;;;;22.25;66.08;96912.44;5022487;28;20246;-75
2022/08/18 05:12:12;;;;;;;7.25;6.65;;;;;;;22.22;66.13;96909.69;5005591;28;20375;-75
2022/08/18 05:14:38;;;;;;;7.85;6.93;;;;;;;22.28;66.17;96910.28;5004962;28;20205;-75
2022/08/18 05:17:04;;;;;;;8.32;7.35;;;;;;;22.37;65.89;96903.03;5006306;28;20265;-75
2022/08/18 05:19:30;;;;;;;8.20;7.28;;;;;;;22.32;66.23;96913.84;5020695;28;20249;-75
2022/08/18 05:21:57;;;;;;;8.18;7.38;;;;;;;22.31;66.37;96913.06;5009193;28;20228;-75
2022/08/18 05:24:24;;;;;;;7.68;6.97;;;;;;;22.26;66.62;96910.59;5032682;28;20209;-75
2022/08/18 05:26:50;;;;;;;8.88;7.97;;;;;;;22.24;66.48;96920.72;5026269;27;20224;-75
2022/08/18 05:29:16;;;;;;;8.55;7.47;;;;;;;22.19;66.56;96915.63;5016284;28;20290;-75
2022/08/18 05:31:41;;;;;;;8.88;7.72;;;;;;;22.07;66.72;96919.00;5027297;27;20187;-75
2022/08/18 05:34:07;;;;;;;8.65;7.50;;;;;;;22.04;67.44;96909.06;5011645;28;20247;-75
2022/08/18 05:36:43;;;;;;;9.35;8.43;;;;;;;22.01;67.85;96912.38;5020518;28;20260;-75
2022/08/18 05:39:20;;;;;;;9.57;8.57;;;;;;;21.94;68.11;96910.25;5005650;28;20221;-75
2022/08/18 05:41:52;;;;;;;9.35;8.32;;;;;;;22.02;68.09;96914.69;4988951;28;20174;-75
2022/08/18 05:44:22;;;;;;;9.85;8.85;;;;;;;22.03;67.68;96907.50;4982239;28;20607;-75
2022/08/18 05:47:17;;;;;;;9.80;8.85;;;;;;;21.85;68.56;96906.91;5007395;28;20614;-76
2022/08/18 05:49:44;;;;;;;9.57;8.68;;;;;;;22.04;68.05;96903.78;5014411;28;20653;-75
2022/08/18 05:52:57;;;;;;;10.60;9.02;;;;;;;21.97;68.08;96898.19;5008959;28;20708;-75
2022/08/18 05:58:27;;;;;;;10.68;9.68;;;;;;;22.06;68.23;96898.91;4921968;28;20281;-75
2022/08/18 06:00:55;;;;;;;10.43;9.38;;;;;;;22.02;68.22;96890.03;4890162;28;20249;-76
2022/08/18 06:03:42;;;;;;;12.10;10.38;;;;;;;21.96;68.82;96892.13;4909906;28;20206;-75
2022/08/18 06:06:10;;;;;;;11.95;10.70;;;;;;;22.00;68.30;96898.34;4899512;28;20182;-75
2022/08/18 06:08:43;;;;;;;10.27;9.13;;;;;;;21.89;68.77;96886.59;4913350;28;20228;-75
2022/08/18 06:11:10;;;;;;;12.15;10.02;;;;;;;21.97;68.75;96891.03;4926420;28;20291;-75
2022/08/18 06:13:38;;;;;;;12.10;10.90;;;;;;;21.89;68.85;96883.94;4921695;28;20137;-75
2022/08/18 06:16:18;;;;;;;10.65;9.65;;;;;;;21.90;68.81;96882.84;4912465;28;20156;-76
2022/08/18 06:19:03;;;;;;;10.88;9.80;;;;;;;21.95;68.74;96895.09;4928504;28;20677;-75
2022/08/18 06:21:49;;;;;;;11.35;10.25;;;;;;;22.08;68.33;96900.13;4909384;28;20217;-75
2022/08/18 06:24:24;;;;;;;11.38;10.02;;;;;;;22.04;68.34;96899.25;4897015;28;20749;-75
2022/08/18 06:26:59;;;;;;;13.27;11.70;;;;;;;21.89;68.64;96894.53;4934550;28;20646;-75
2022/08/18 06:29:48;;;;;;;16.25;12.23;;;;;;;21.79;68.73;96889.63;4969980;28;20259;-75
2022/08/18 06:32:33;;;;;;;15.43;13.27;;;;;;;22.01;68.14;96913.13;5014802;27;20155;-75
2022/08/18 06:35:02;;;;;;;15.50;13.20;;;;;;;21.95;67.67;96908.34;5047063;27;20192;-75
2022/08/18 06:40:31;;;;;;;14.50;13.10;;;;;;;22.09;67.51;96911.53;5035816;27;20291;-76
2022/08/18 06:42:59;;;;;;;15.73;13.85;;;;;;;22.22;66.73;96909.69;5036886;27;20205;-75
2022/08/18 06:45:31;;;;;;;15.23;13.63;;;;;;;22.21;66.86;96908.91;5036990;27;20636;-76
2022/08/18 06:48:03;;;;;;;14.60;13.18;;;;;;;22.30;66.76;96908.09;5017386;27;20183;-76
2022/08/18 06:50:57;;;;;;;14.60;13.18;;;;;;;22.24;67.24;96923.38;5020501;27;20191;-75
2022/08/18 06:53:54;;;;;;;16.05;14.35;;;;;;;22.21;67.48;96924.81;5038325;27;20277;-75
2022/08/18 06:56:22;;;;;;;15.13;13.57;;;;;;;22.33;67.03;96926.78;5027518;27;20247;-76
2022/08/18 06:58:49;;;;;;;16.88;14.93;;;;;;;22.37;67.33;96922.34;5030013;27;20099;-75
2022/08/18 07:01:16;;;;;;;17.15;14.52;;;;;;;22.35;67.02;96923.78;5008427;27;20181;-75
2022/08/18 07:03:45;;;;;;;14.45;12.95;;;;;;;22.46;66.46;96929.47;5043600;27;20286;-75
2022/08/18 07:06:22;;;;;;;17.70;15.88;;;;;;;22.46;67.11;96930.22;5027158;27;20204;-75
2022/08/18 07:08:49;;;;;;;17.00;15.00;;;;;;;22.42;66.87;96922.16;4996573;28;20652;-75
2022/08/18 07:11:28;;;;;;;15.50;13.98;;;;;;;22.44;66.67;96927.13;5003052;27;20271;-75
2022/08/18 07:14:11;;;;;;;17.55;15.75;;;;;;;22.27;67.22;96922.72;5007651;27;20272;-76
2022/08/18 07:16:36;;;;;;;16.55;14.07;;;;;;;22.44;67.01;96922.59;5031565;27;20192;-75
2022/08/18 07:19:09;;;;;;;17.27;15.48;;;;;;;22.38;66.04;96921.25;5019407;27;20689;-75
2022/08/18 07:21:36;;;;;;;17.60;15.75;;;;;;;22.47;65.96;96928.38;5028755;27;20173;-75
2022/08/18 07:24:09;;;;;;;18.33;15.95;;;;;;;22.37;66.36;96934.84;5006555;27;20283;-75
2022/08/18 07:27:02;;;;;;;18.08;16.17;;;;;;;22.28;67.23;96936.78;5032153;27;20331;-75
2022/08/18 07:29:34;;;;;;;17.90;16.05;;;;;;;22.31;67.04;96930.84;5024783;27;20254;-76
2022/08/18 07:32:06;;;;;;;16.92;15.18;;;;;;;22.37;66.25;96938.28;5033302;27;20245;-75
2022/08/18 07:34:42;;;;;;;17.80;15.98;;;;;;;22.36;66.71;96941.25;5028196;27;20276;-76
2022/08/18 07:37:49;;;;;;;18.55;16.15;;;;;;;22.29;67.88;96941.00;5048904;27;20251;-75
2022/08/18 07:40:26;;;;;;;18.88;16.85;;;;;;;22.39;66.74;96935.28;5067360;27;20181;-75
2022/08/18 07:43:01;;;;;;;19.15;17.13;;;;;;;22.40;67.14;96942.16;5067561;27;20164;-75
2022/08/18 07:45:41;;;;;;;18.77;16.63;;;;;;;22.32;66.84;96945.66;5017420;27;20204;-75
2022/08/18 07:48:14;;;;;;;20.17;17.17;;;;;;;22.48;67.09;96948.47;5011655;27;20268;-75
2022/08/18 07:50:46;;;;;;;22.23;19.55;;;;;;;22.21;67.26;96955.88;4994771;27;20233;-75
2022/08/18 07:53:26;;;;;;;22.05;19.63;;;;;;;22.23;67.75;96949.13;5047141;27;20193;-75
2022/08/18 07:55:56;;;;;;;22.50;18.90;;;;;;;22.26;67.63;96953.78;5028022;27;20193;-75
2022/08/18 07:58:30;;;;;;;22.58;20.17;;;;;;;22.21;68.01;96951.34;5028288;27;20289;-75
2022/08/18 08:01:14;;;;;;;21.87;18.73;;;;;;;22.19;68.06;96944.81;5028306;27;20222;-76
2022/08/18 08:04:09;;;;;;;21.83;19.35;;;;;;;22.16;68.10;96948.13;5046549;27;20289;-75
2022/08/18 08:06:42;;;;;;;23.45;19.63;;;;;;;22.19;68.66;96940.28;5047018;27;20657;-75
2022/08/18 08:09:52;;;;;;;24.83;20.50;;;;;;;22.03;68.51;96940.09;5028007;27;20237;-75
2022/08/18 08:12:41;;;;;;;24.20;20.25;;;;;;;22.07;68.60;96946.31;4966240;28;20267;-76
2022/08/18 08:15:42;;;;;;;23.17;19.73;;;;;;;22.12;68.62;96950.63;5024611;27;20266;-75
2022/08/18 08:18:08;;;;;;;23.50;20.48;;;;;;;22.30;68.03;96953.94;5023820;27;20185;-76
2022/08/18 08:21:04;;;;;;;24.45;20.90;;;;;;;22.14;68.05;96958.25;5027769;27;20241;-75
2022/08/18 08:23:45;;;;;;;23.27;20.08;;;;;;;22.14;68.19;96955.59;5010527;27;20161;-75
2022/08/18 08:26:16;;;;;;;23.23;20.48;;;;;;;22.32;68.39;96951.75;5046966;27;20230;-75
2022/08/18 08:29:20;;;;;;;26.67;21.98;;;;;;;22.06;69.12;96950.06;5046311;27;20184;-75
2022/08/18 08:31:56;;;;;;;24.42;20.60;;;;;;;22.11;68.92;96938.47;5027713;27;20212;-75
2022/08/18 08:34:43;;;;;;;24.10;20.60;;;;;;;22.25;68.66;96941.63;5010206;27;20161;-75
2022/08/18 08:37:17;;;;;;;22.17;19.10;;;;;;;22.33;68.22;96947.19;5046204;27;20290;-75
2022/08/18 08:39:56;;;;;;;25.25;21.67;;;;;;;22.37;68.05;96961.38;4994341;27;20548;-75
2022/08/18 08:42:24;;;;;;;25.52;21.58;;;;;;;22.52;68.73;96960.75;5027609;27;20330;-77
2022/08/18 08:44:58;;;;;;;22.88;19.83;;;;;;;22.40;68.54;96966.03;5036424;27;20353;-75
2022/08/18 08:47:57;;;;;;;23.73;20.80;;;;;;;22.36;68.42;96968.56;5007489;28;20174;-75
2022/08/18 08:50:28;;;;;;;23.10;19.38;;;;;;;22.40;68.55;96969.47;5006996;28;20232;-75
2022/08/18 08:52:58;;;;;;;21.88;19.48;;;;;;;22.57;67.65;96971.16;4990630;28;20603;-75
2022/08/18 08:55:36;;;;;;;23.90;19.75;;;;;;;22.44;68.15;96977.53;4989886;28;20189;-75
2022/08/18 08:58:28;;;;;;;22.35;19.45;;;;;;;22.35;67.95;96985.56;5007203;28;20232;-75
2022/08/18 09:00:54;;;;;;;20.00;17.65;;;;;;;22.58;67.72;96985.22;5018069;28;20193;-75
2022/08/18 09:03:35;;;;;;;22.30;18.70;;;;;;;22.38;68.31;96987.59;5006673;28;20209;-75
2022/08/18 09:06:25;;;;;;;22.88;19.88;;;;;;;22.37;68.54;96990.56;5007258;28;20576;-75
2022/08/18 09:09:18;;;;;;;20.08;17.70;;;;;;;22.43;68.15;96986.59;5025351;28;20130;-75
2022/08/18 09:12:00;;;;;;;21.40;19.10;;;;;;;22.46;68.18;96995.78;5025625;28;20164;-75
2022/08/18 09:14:43;;;;;;;23.65;21.08;;;;;;;22.43;68.62;96998.00;4989826;28;20166;-75
2022/08/18 09:17:36;;;;;;;19.13;16.77;;;;;;;22.50;68.37;96989.50;5025787;28;20235;-75
2022/08/18 09:20:02;;;;;;;23.80;21.23;;;;;;;22.67;67.75;96998.38;5025260;28;20205;-75
2022/08/18 09:22:47;;;;;;;21.58;19.25;;;;;;;22.52;68.57;96984.66;5025398;28;20170;-75
2022/08/18 09:25:43;;;;;;;22.15;19.85;;;;;;;22.56;68.33;97004.09;5006845;28;20584;-75
2022/08/18 09:28:35;;;;;;;20.27;17.23;;;;;;;22.75;68.42;97006.25;4990259;28;20197;-75
2022/08/18 09:31:00;;;;;;;21.42;19.13;;;;;;;22.85;68.24;96999.78;5016860;28;20205;-75
2022/08/18 09:33:25;;;;;;;23.08;19.15;;;;;;;22.85;67.97;96994.47;5023245;28;20802;-75
2022/08/18 09:36:07;;;;;;;21.38;19.17;;;;;;;22.65;68.54;96992.63;5025076;28;20217;-75
2022/08/18 09:41:31;;;;;;;20.13;16.85;;;;;;;22.56;68.36;96982.13;5013151;28;20185;-75
2022/08/18 09:44:10;;;;;;;18.48;16.73;;;;;;;22.44;68.57;96988.16;4994852;27;20715;-75
2022/08/18 09:46:41;;;;;;;19.70;17.70;;;;;;;22.41;68.85;96986.13;5010641;28;20205;-75
2022/08/18 09:49:28;;;;;;;19.77;17.77;;;;;;;22.34;69.45;96975.28;5028575;28;20608;-76
2022/08/18 09:51:55;;;;;;;21.30;18.95;;;;;;;22.50;69.20;96970.13;5000618;28;20533;-75
2022/08/18 09:54:32;;;;;;;19.90;17.88;;;;;;;22.42;69.27;96971.78;5010065;28;20201;-76
2022/08/18 09:57:16;;;;;;;22.33;19.70;;;;;;;22.40;69.97;96974.00;5010807;28;20196;-76
2022/08/18 09:59:44;;;;;;;22.15;19.35;;;;;;;22.38;69.54;96969.00;5038771;27;20166;-76
2022/08/18 10:02:30;;;;;;;22.13;19.10;;;;;;;22.26;70.35;96972.34;5047107;27;20183;-76
2022/08/18 10:05:14;;;;;;;23.92;21.20;;;;;;;22.34;69.91;96973.41;4971959;27;20196;-76
2022/08/18 10:07:49;;;;;;;23.92;18.85;;;;;;;22.48;70.16;96975.78;5029878;27;20342;-77
2022/08/18 10:10:14;;;;;;;25.13;20.65;;;;;;;22.58;70.01;96967.41;5030542;27;20266;-77
2022/08/18 10:13:21;;;;;;;22.55;19.40;;;;;;;22.29;70.51;96963.00;5049217;27;20253;-77
2022/08/18 10:16:15;;;;;;;24.88;21.60;;;;;;;22.21;71.14;96969.13;4930473;28;20167;-77
2022/08/18 10:18:55;;;;;;;24.88;20.30;;;;;;;22.28;70.92;96968.63;4945952;28;20311;-77
2022/08/18 10:21:27;;;;;;;21.88;19.58;;;;;;;22.46;70.23;96970.03;4930529;28;20200;-78
2022/08/18 10:24:14;;;;;;;26.23;22.63;;;;;;;22.31;70.99;96967.97;4929311;28;20212;-78
2022/08/18 10:26:42;;;;;;;25.77;21.15;;;;;;;22.37;70.77;96966.69;4913975;28;20213;-78
2022/08/18 10:29:11;;;;;;;24.85;21.08;;;;;;;22.39;70.91;96967.91;4929659;28;20170;-78
2022/08/18 10:31:55;;;;;;;27.08;22.45;;;;;;;22.21;71.76;96969.13;4947102;28;20355;-78
2022/08/18 10:34:41;;;;;;;25.65;21.92;;;;;;;22.18;71.50;96967.91;4930151;28;20209;-78
2022/08/18 10:37:22;;;;;;;27.20;21.88;;;;;;;22.21;71.59;96961.19;4958917;28;20220;-78
2022/08/18 10:39:57;;;;;;;26.55;22.30;;;;;;;22.22;71.69;96957.41;4950263;28;20299;-78
2022/08/18 10:42:32;;;;;;;30.58;23.55;;;;;;;22.15;71.88;96960.59;4932655;28;20286;-77
2022/08/18 10:45:25;;;;;;;26.60;22.77;;;;;;;22.16;71.96;96959.50;4934498;28;20212;-78
2022/08/18 10:48:17;;;;;;;24.80;21.55;;;;;;;22.22;71.89;96963.47;5024879;27;20200;-77
2022/08/18 10:50:51;;;;;;;27.23;22.85;;;;;;;22.26;71.41;96964.41;5036044;27;20294;-77
2022/08/18 10:53:29;;;;;;;25.60;21.52;;;;;;;22.18;71.64;96965.25;5011866;27;20759;-77
2022/08/18 10:56:08;;;;;;;20.20;18.08;;;;;;;22.10;71.19;96960.78;5029808;27;20272;-78
2022/08/18 10:59:03;;;;;;;20.67;17.80;;;;;;;21.87;71.26;96945.22;5014410;27;20204;-78
2022/08/18 11:01:43;;;;;;;20.35;17.67;;;;;;;21.89;71.73;96915.75;5068605;27;20237;-78
2022/08/18 11:04:24;;;;;;;23.90;20.73;;;;;;;22.02;72.35;96900.66;5032840;27;20177;-78
2022/08/18 11:06:52;;;;;;;26.30;22.48;;;;;;;22.20;72.29;96917.97;5033203;27;20272;-77
2022/08/18 11:09:27;;;;;;;24.15;20.05;;;;;;;22.30;71.87;96932.72;5050375;27;20753;-77
2022/08/18 11:11:54;;;;;;;20.90;18.67;;;;;;;22.49;70.53;96928.81;5032558;27;20238;-77
2022/08/18 11:14:32;;;;;;;20.50;18.30;;;;;;;22.46;70.43;96935.53;5032696;27;20180;-78
2022/08/18 11:17:27;;;;;;;21.45;19.23;;;;;;;22.21;71.12;96919.53;5050655;27;20195;-77
2022/08/18 11:19:54;;;;;;;24.42;20.67;;;;;;;22.11;71.05;96917.28;5068061;27;20180;-77
2022/08/18 11:22:25;;;;;;;22.10;19.17;;;;;;;22.07;71.46;96927.75;5050141;27;20276;-78
2022/08/18 11:24:51;;;;;;;22.50;19.55;;;;;;;22.04;70.91;96927.63;5049001;27;20240;-79
2022/08/18 11:27:37;;;;;;;23.67;20.70;;;;;;;21.75;72.01;96917.88;5033243;27;20177;-78
2022/08/18 11:30:05;;;;;;;25.60;22.10;;;;;;;21.79;71.71;96922.19;5031174;27;20215;-77
2022/08/18 11:32:32;;;;;;;26.83;21.17;;;;;;;21.85;71.91;96926.22;5048882;27;20153;-77
2022/08/18 11:35:01;;;;;;;26.98;23.33;;;;;;;22.00;71.79;96934.66;5031772;27;20640;-77
2022/08/18 11:37:26;;;;;;;30.80;25.00;;;;;;;22.06;71.95;96936.81;5067053;27;20169;-76
2022/08/18 11:39:54;;;;;;;27.35;22.27;;;;;;;22.21;71.54;96921.41;5048536;27;20203;-76
2022/08/18 11:42:32;;;;;;;27.98;23.33;;;;;;;22.20;71.75;96925.16;5048455;27;20339;-77
2022/08/18 11:45:06;;;;;;;24.27;21.70;;;;;;;22.30;71.41;96914.16;5003945;27;20246;-76
2022/08/18 11:47:32;;;;;;;24.50;21.52;;;;;;;22.37;71.21;96918.94;5028085;27;20192;-76
2022/08/18 11:50:10;;;;;;;25.35;21.80;;;;;;;22.24;71.70;96924.19;5027822;27;20296;-76
2022/08/18 11:52:48;;;;;;;24.67;21.48;;;;;;;22.29;71.77;96925.09;5027320;27;20215;-76
2022/08/18 11:55:29;;;;;;;22.00;19.38;;;;;;;22.35;71.29;96916.59;5048538;27;20662;-77
2022/08/18 11:57:57;;;;;;;24.92;21.33;;;;;;;22.45;71.20;96918.09;5048190;27;20274;-75
2022/08/18 12:00:42;;;;;;;23.40;20.90;;;;;;;22.34;71.30;96916.94;5011662;28;20239;-76
2022/08/18 12:03:18;;;;;;;24.87;21.57;;;;;;;22.36;71.49;96912.06;5007012;28;20209;-76
2022/08/18 12:05:52;;;;;;;27.85;24.75;;;;;;;22.17;72.08;96918.59;5007407;28;20558;-76
2022/08/18 12:08:29;;;;;;;;;;;;;;;22.08;72.93;96918.69;5008360;28;20333;-75
2022/08/18 12:11:12;;;;;;;26.83;22.50;;;;;;;22.38;72.00;96918.63;5007340;28;20168;-75